Decoded Metar for KEVM (EVELETH MUNI in MN, USA) (IATA:EVM) | Meteo·Mobile Aviation Weather
aviador You're here:

KEVM Decoded Metar

EVELETH MUNI in MN, USA
Report Time2019-07-16 23:16:00
UTC Time2019-07-16 23:33:31
Flight Rules vfr VFR
Wind010° at 03 kt
W.Decomp.*RWY 32: 1.9 kt HW 2.3 kt RCW
RWY 09: 0.5 kt HW 3 kt LCW
Visibility9999 m
Phenomena:N/A
Clouds:Broken 050 Hf
Broken 065 Hf
Expected CloudBase > 4,800 ft AGL from Temp-Dew spread
Ceiling5,000 ft
Temp28°C (ISA +16)
Dew Point16°C (48% RH)
Heat Index28.3°C
QNH1013 hPa
Density Alt3,435 ft
Elevation1,381 ft
Report Wrong Elevation
Raw Report
KEVM 162316Z AUTO 01003KT 10SM BKN050 BKN065 28/16 A2990 RMK AO2
T02750155=

Extra information for KEVM:More info

Metar Taf Metar & Taf Last 4 Metars F.Rules Stats Wind Profile Meteogram Temp Stats Airport Information Weather charts Add Link Nearby VenuesMetar ALERT Operation Metar Decoded Social comments

AIRNAV info for KEVM